Viru-Viru, Bolivia
Current Conditions -  °F | °C
As of 5:17 AM on Friday 19 Dec 2014 (Local Time) from SLVR Reporting Station
Drizzle Drizzle  
Wind Chill: 73°   Ceiling: 1500
Heat Index: 73°   Visibility: 5mi
Dew Point: 73°   Wind: 3mph
Humidity: 100%   Direction: 310°NW
Pressure: 29.8"   Gusts: NA
Location:  17.63°S, 63.13°W
Report Text: SLVR 190917Z 31003KT 8000 -DZ SCT006 BKN015 OVC070 23/23 Q1009
Loading
Personal Weather Stations






























Interactive Weather Map New forecast layout! Learn more

10-Day Weather Forecast

Advertisements
Track Severe Weather on mobile